sensor_id;sensor_type;location;lat;lon;timestamp;pressure;altitude;pressure_sealevel;temperature;humidity
80693;BME280;70055;39.436;-77.514;2023-07-31T00:01:26;99256.80;;;24.47;39.42
80693;BME280;70055;39.436;-77.514;2023-07-31T00:03:54;99255.78;;;24.23;38.51
80693;BME280;70055;39.436;-77.514;2023-07-31T00:06:22;99256.39;;;24.33;37.48
80693;BME280;70055;39.436;-77.514;2023-07-31T00:08:50;99259.05;;;23.76;37.51
80693;BME280;70055;39.436;-77.514;2023-07-31T00:11:19;99258.08;;;23.56;36.74
80693;BME280;70055;39.436;-77.514;2023-07-31T00:13:47;99257.58;;;23.72;36.11
80693;BME280;70055;39.436;-77.514;2023-07-31T00:16:15;99260.70;;;23.13;37.39
80693;BME280;70055;39.436;-77.514;2023-07-31T00:18:44;99263.19;;;23.57;36.84
80693;BME280;70055;39.436;-77.514;2023-07-31T00:21:12;99270.27;;;24.17;35.51
80693;BME280;70055;39.436;-77.514;2023-07-31T00:23:41;99271.00;;;22.93;37.15
80693;BME280;70055;39.436;-77.514;2023-07-31T00:26:10;99274.71;;;22.07;38.44
80693;BME280;70055;39.436;-77.514;2023-07-31T00:28:38;99273.67;;;21.83;39.25
80693;BME280;70055;39.436;-77.514;2023-07-31T00:31:06;99277.84;;;20.73;44.76
80693;BME280;70055;39.436;-77.514;2023-07-31T00:33:35;99273.67;;;22.88;42.12
80693;BME280;70055;39.436;-77.514;2023-07-31T00:36:04;99273.75;;;22.61;41.35
80693;BME280;70055;39.436;-77.514;2023-07-31T00:38:32;99270.98;;;22.90;39.05
80693;BME280;70055;39.436;-77.514;2023-07-31T00:41:00;99268.95;;;21.90;40.71
80693;BME280;70055;39.436;-77.514;2023-07-31T00:43:28;99272.29;;;21.00;42.51
80693;BME280;70055;39.436;-77.514;2023-07-31T00:45:56;99273.87;;;21.84;41.93
80693;BME280;70055;39.436;-77.514;2023-07-31T00:48:24;99270.85;;;22.89;39.86
80693;BME280;70055;39.436;-77.514;2023-07-31T00:50:52;99271.54;;;23.12;39.72
80693;BME280;70055;39.436;-77.514;2023-07-31T00:53:22;99270.76;;;22.65;41.21
80693;BME280;70055;39.436;-77.514;2023-07-31T00:55:51;99272.32;;;22.83;39.54
80693;BME280;70055;39.436;-77.514;2023-07-31T00:58:21;99275.25;;;22.58;40.23
80693;BME280;70055;39.436;-77.514;2023-07-31T01:00:50;99276.57;;;22.60;39.93
80693;BME280;70055;39.436;-77.514;2023-07-31T01:03:19;99277.70;;;22.46;39.99
80693;BME280;70055;39.436;-77.514;2023-07-31T01:05:57;99284.17;;;22.48;40.11
80693;BME280;70055;39.436;-77.514;2023-07-31T01:08:41;99287.81;;;21.58;42.31
80693;BME280;70055;39.436;-77.514;2023-07-31T01:11:16;99289.10;;;21.05;42.23
80693;BME280;70055;39.436;-77.514;2023-07-31T01:13:45;99301.07;;;19.44;44.33
80693;BME280;70055;39.436;-77.514;2023-07-31T01:16:14;99302.36;;;20.81;42.67
80693;BME280;70055;39.436;-77.514;2023-07-31T01:18:43;99301.68;;;21.19;42.66
80693;BME280;70055;39.436;-77.514;2023-07-31T01:21:22;99299.68;;;20.99;44.66
80693;BME280;70055;39.436;-77.514;2023-07-31T01:24:14;99302.17;;;21.87;43.24
80693;BME280;70055;39.436;-77.514;2023-07-31T01:26:52;99306.91;;;21.42;44.81
80693;BME280;70055;39.436;-77.514;2023-07-31T01:29:28;99308.27;;;21.54;44.18
80693;BME280;70055;39.436;-77.514;2023-07-31T01:31:57;99310.04;;;21.12;44.81
80693;BME280;70055;39.436;-77.514;2023-07-31T01:34:29;99309.93;;;21.41;44.16
80693;BME280;70055;39.436;-77.514;2023-07-31T01:36:59;99315.48;;;20.43;43.83
80693;BME280;70055;39.436;-77.514;2023-07-31T01:39:26;99317.48;;;21.01;42.91
80693;BME280;70055;39.436;-77.514;2023-07-31T01:41:56;99315.57;;;21.27;42.78
80693;BME280;70055;39.436;-77.514;2023-07-31T01:44:25;99316.61;;;21.22;43.65
80693;BME280;70055;39.436;-77.514;2023-07-31T01:46:53;99326.50;;;20.12;44.50
80693;BME280;70055;39.436;-77.514;2023-07-31T01:49:21;99327.72;;;21.01;43.06
80693;BME280;70055;39.436;-77.514;2023-07-31T01:51:48;99328.77;;;19.79;44.06
80693;BME280;70055;39.436;-77.514;2023-07-31T01:54:16;99330.03;;;19.03;48.56
80693;BME280;70055;39.436;-77.514;2023-07-31T01:56:44;99329.17;;;20.21;47.30
80693;BME280;70055;39.436;-77.514;2023-07-31T01:59:12;99328.11;;;19.38;50.34
80693;BME280;70055;39.436;-77.514;2023-07-31T02:01:41;99328.02;;;19.48;49.13
80693;BME280;70055;39.436;-77.514;2023-07-31T02:04:09;99331.69;;;20.30;46.16
80693;BME280;70055;39.436;-77.514;2023-07-31T02:06:39;99333.26;;;20.91;46.95
80693;BME280;70055;39.436;-77.514;2023-07-31T02:09:08;99336.18;;;21.26;46.65
80693;BME280;70055;39.436;-77.514;2023-07-31T02:11:36;99335.87;;;21.47;45.41
80693;BME280;70055;39.436;-77.514;2023-07-31T02:14:04;99335.31;;;22.01;44.20
80693;BME280;70055;39.436;-77.514;2023-07-31T02:16:33;99334.22;;;21.66;43.71
80693;BME280;70055;39.436;-77.514;2023-07-31T02:19:02;99326.93;;;22.23;42.74
80693;BME280;70055;39.436;-77.514;2023-07-31T02:21:30;99327.51;;;22.46;43.01
80693;BME280;70055;39.436;-77.514;2023-07-31T02:23:58;99330.11;;;21.04;42.64
80693;BME280;70055;39.436;-77.514;2023-07-31T02:26:26;99327.59;;;20.10;43.58
80693;BME280;70055;39.436;-77.514;2023-07-31T02:28:55;99326.15;;;20.06;44.62
80693;BME280;70055;39.436;-77.514;2023-07-31T02:31:24;99326.93;;;20.10;44.50
80693;BME280;70055;39.436;-77.514;2023-07-31T02:33:52;99329.29;;;20.46;42.14
80693;BME280;70055;39.436;-77.514;2023-07-31T02:36:20;99327.47;;;20.03;44.02
80693;BME280;70055;39.436;-77.514;2023-07-31T02:38:49;99328.83;;;20.54;42.21
80693;BME280;70055;39.436;-77.514;2023-07-31T02:41:17;99326.63;;;21.04;41.39
80693;BME280;70055;39.436;-77.514;2023-07-31T02:43:46;99327.02;;;21.02;40.13
80693;BME280;70055;39.436;-77.514;2023-07-31T02:46:14;99324.18;;;20.69;41.25
80693;BME280;70055;39.436;-77.514;2023-07-31T02:48:42;99330.20;;;20.29;42.46
80693;BME280;70055;39.436;-77.514;2023-07-31T02:51:10;99334.74;;;20.69;41.96
80693;BME280;70055;39.436;-77.514;2023-07-31T02:53:39;99333.58;;;20.92;41.50
80693;BME280;70055;39.436;-77.514;2023-07-31T02:56:07;99329.58;;;22.74;36.18
80693;BME280;70055;39.436;-77.514;2023-07-31T02:58:36;99332.34;;;22.12;37.32
80693;BME280;70055;39.436;-77.514;2023-07-31T03:01:05;99342.35;;;21.64;37.44
80693;BME280;70055;39.436;-77.514;2023-07-31T03:03:33;99349.33;;;22.59;39.39
80693;BME280;70055;39.436;-77.514;2023-07-31T03:06:03;99359.41;;;23.78;39.03
80693;BME280;70055;39.436;-77.514;2023-07-31T03:08:32;99368.44;;;20.23;49.21
80693;BME280;70055;39.436;-77.514;2023-07-31T03:11:02;99373.76;;;19.45;53.62
80693;BME280;70055;39.436;-77.514;2023-07-31T03:13:30;99385.02;;;19.33;53.10
80693;BME280;70055;39.436;-77.514;2023-07-31T03:15:57;99397.82;;;18.94;55.15
80693;BME280;70055;39.436;-77.514;2023-07-31T03:18:25;99411.42;;;20.07;53.93
80693;BME280;70055;39.436;-77.514;2023-07-31T03:20:53;99427.82;;;19.59;52.91
80693;BME280;70055;39.436;-77.514;2023-07-31T03:23:21;99433.46;;;20.81;50.97
80693;BME280;70055;39.436;-77.514;2023-07-31T03:25:59;99445.34;;;21.67;51.06
80693;BME280;70055;39.436;-77.514;2023-07-31T03:28:27;99450.93;;;21.48;48.82
80693;BME280;70055;39.436;-77.514;2023-07-31T03:30:55;99450.55;;;20.83;50.40
80693;BME280;70055;39.436;-77.514;2023-07-31T03:33:23;99453.36;;;20.35;52.03
80693;BME280;70055;39.436;-77.514;2023-07-31T03:35:53;99454.53;;;18.88;55.54
80693;BME280;70055;39.436;-77.514;2023-07-31T03:38:22;99454.20;;;19.20;57.81
80693;BME280;70055;39.436;-77.514;2023-07-31T03:40:50;99453.47;;;18.05;56.57
80693;BME280;70055;39.436;-77.514;2023-07-31T03:43:18;99453.28;;;19.64;56.60
80693;BME280;70055;39.436;-77.514;2023-07-31T03:45:46;99452.98;;;20.10;56.11
80693;BME280;70055;39.436;-77.514;2023-07-31T03:48:15;99452.39;;;20.47;56.11
80693;BME280;70055;39.436;-77.514;2023-07-31T03:50:44;99455.86;;;19.56;57.56
80693;BME280;70055;39.436;-77.514;2023-07-31T03:53:12;99456.53;;;19.37;59.13
80693;BME280;70055;39.436;-77.514;2023-07-31T03:55:40;99459.80;;;20.41;56.55
80693;BME280;70055;39.436;-77.514;2023-07-31T03:58:08;99462.40;;;20.46;57.07
80693;BME280;70055;39.436;-77.514;2023-07-31T04:00:36;99463.03;;;20.34;57.14
80693;BME280;70055;39.436;-77.514;2023-07-31T04:03:04;99463.94;;;19.99;57.95
80693;BME280;70055;39.436;-77.514;2023-07-31T04:05:33;99466.59;;;20.47;57.27
80693;BME280;70055;39.436;-77.514;2023-07-31T04:08:01;99467.59;;;19.50;58.65
80693;BME280;70055;39.436;-77.514;2023-07-31T04:10:29;99465.67;;;20.23;58.61
80693;BME280;70055;39.436;-77.514;2023-07-31T04:12:57;99462.46;;;19.32;59.55
80693;BME280;70055;39.436;-77.514;2023-07-31T04:15:26;99462.61;;;19.69;59.27
80693;BME280;70055;39.436;-77.514;2023-07-31T04:17:55;99463.53;;;19.09;60.40
80693;BME280;70055;39.436;-77.514;2023-07-31T04:20:23;99466.01;;;18.34;62.28
80693;BME280;70055;39.436;-77.514;2023-07-31T04:22:51;99461.08;;;17.99;63.58
80693;BME280;70055;39.436;-77.514;2023-07-31T04:25:19;99459.71;;;18.98;62.52
80693;BME280;70055;39.436;-77.514;2023-07-31T04:27:47;99460.15;;;18.37;63.49
80693;BME280;70055;39.436;-77.514;2023-07-31T04:30:15;99456.50;;;19.39;61.43
80693;BME280;70055;39.436;-77.514;2023-07-31T04:32:43;99456.71;;;18.82;61.91
80693;BME280;70055;39.436;-77.514;2023-07-31T04:35:12;99459.26;;;19.51;59.51
80693;BME280;70055;39.436;-77.514;2023-07-31T04:37:40;99464.23;;;18.82;60.53
80693;BME280;70055;39.436;-77.514;2023-07-31T04:40:09;99468.56;;;19.51;59.79
80693;BME280;70055;39.436;-77.514;2023-07-31T04:42:39;99464.02;;;20.14;58.25
80693;BME280;70055;39.436;-77.514;2023-07-31T04:45:09;99463.48;;;20.37;58.84
80693;BME280;70055;39.436;-77.514;2023-07-31T04:47:37;99461.48;;;20.11;59.01
80693;BME280;70055;39.436;-77.514;2023-07-31T04:50:06;99466.41;;;18.84;60.87
80693;BME280;70055;39.436;-77.514;2023-07-31T04:52:35;99467.78;;;19.56;59.83
80693;BME280;70055;39.436;-77.514;2023-07-31T04:55:03;99468.22;;;20.18;58.90
80693;BME280;70055;39.436;-77.514;2023-07-31T04:57:32;99471.47;;;20.31;58.57
80693;BME280;70055;39.436;-77.514;2023-07-31T05:00:00;99474.16;;;20.41;57.57
80693;BME280;70055;39.436;-77.514;2023-07-31T05:02:27;99476.39;;;20.45;57.26
80693;BME280;70055;39.436;-77.514;2023-07-31T05:04:55;99474.80;;;20.56;56.21
80693;BME280;70055;39.436;-77.514;2023-07-31T05:07:24;99481.92;;;20.56;56.35
80693;BME280;70055;39.436;-77.514;2023-07-31T05:09:52;99477.92;;;20.19;57.79
80693;BME280;70055;39.436;-77.514;2023-07-31T05:12:21;99471.22;;;20.58;58.28
80693;BME280;70055;39.436;-77.514;2023-07-31T05:14:49;99462.04;;;20.32;58.16
80693;BME280;70055;39.436;-77.514;2023-07-31T05:17:17;99453.71;;;19.58;59.45
80693;BME280;70055;39.436;-77.514;2023-07-31T05:19:45;99455.91;;;18.60;62.31
80693;BME280;70055;39.436;-77.514;2023-07-31T05:22:13;99450.29;;;19.81;59.70
80693;BME280;70055;39.436;-77.514;2023-07-31T05:24:41;99443.29;;;19.83;58.48
80693;BME280;70055;39.436;-77.514;2023-07-31T05:27:10;99436.85;;;18.89;61.30
80693;BME280;70055;39.436;-77.514;2023-07-31T05:29:38;99432.94;;;19.90;58.99
80693;BME280;70055;39.436;-77.514;2023-07-31T05:32:08;99435.74;;;18.09;63.78
80693;BME280;70055;39.436;-77.514;2023-07-31T05:34:37;99441.69;;;19.06;62.76
80693;BME280;70055;39.436;-77.514;2023-07-31T05:37:05;99442.30;;;19.92;59.68
80693;BME280;70055;39.436;-77.514;2023-07-31T05:39:33;99441.34;;;20.11;59.50
80693;BME280;70055;39.436;-77.514;2023-07-31T05:42:01;99435.70;;;20.29;58.45
80693;BME280;70055;39.436;-77.514;2023-07-31T05:44:29;99418.49;;;19.42;61.16
80693;BME280;70055;39.436;-77.514;2023-07-31T05:46:58;99408.80;;;19.51;61.74
80693;BME280;70055;39.436;-77.514;2023-07-31T05:49:26;99412.69;;;17.76;65.01
80693;BME280;70055;39.436;-77.514;2023-07-31T05:51:54;99408.08;;;18.83;61.92
80693;BME280;70055;39.436;-77.514;2023-07-31T05:54:22;99406.90;;;19.00;61.82
80693;BME280;70055;39.436;-77.514;2023-07-31T05:56:49;99401.02;;;19.70;60.50
80693;BME280;70055;39.436;-77.514;2023-07-31T05:59:18;99403.47;;;18.50;63.01
80693;BME280;70055;39.436;-77.514;2023-07-31T06:01:46;99399.73;;;18.62;61.69
80693;BME280;70055;39.436;-77.514;2023-07-31T06:04:15;99397.32;;;18.45;62.12
80693;BME280;70055;39.436;-77.514;2023-07-31T06:06:43;99391.59;;;17.92;63.32
80693;BME280;70055;39.436;-77.514;2023-07-31T06:09:10;99382.63;;;19.66;60.82
80693;BME280;70055;39.436;-77.514;2023-07-31T06:11:38;99374.57;;;18.96;61.69
80693;BME280;70055;39.436;-77.514;2023-07-31T06:14:06;99368.65;;;19.92;59.98
80693;BME280;70055;39.436;-77.514;2023-07-31T06:16:34;99370.49;;;19.82;59.63
80693;BME280;70055;39.436;-77.514;2023-07-31T06:19:02;99372.82;;;19.16;60.15
80693;BME280;70055;39.436;-77.514;2023-07-31T06:21:30;99371.82;;;19.19;60.39
80693;BME280;70055;39.436;-77.514;2023-07-31T06:23:58;99371.59;;;18.36;62.52
80693;BME280;70055;39.436;-77.514;2023-07-31T06:26:26;99376.31;;;16.19;68.84
80693;BME280;70055;39.436;-77.514;2023-07-31T06:28:54;99361.47;;;18.34;63.67
80693;BME280;70055;39.436;-77.514;2023-07-31T06:31:22;99358.02;;;18.01;63.90
80693;BME280;70055;39.436;-77.514;2023-07-31T06:33:50;99357.96;;;17.89;63.62
80693;BME280;70055;39.436;-77.514;2023-07-31T06:36:18;99354.92;;;17.67;63.67
80693;BME280;70055;39.436;-77.514;2023-07-31T06:38:46;99345.56;;;16.50;66.33
80693;BME280;70055;39.436;-77.514;2023-07-31T06:41:14;99342.41;;;17.36;64.74
80693;BME280;70055;39.436;-77.514;2023-07-31T06:43:42;99336.34;;;17.47;64.71
80693;BME280;70055;39.436;-77.514;2023-07-31T06:46:10;99332.49;;;19.13;60.13
80693;BME280;70055;39.436;-77.514;2023-07-31T06:48:38;99329.72;;;18.43;61.60
80693;BME280;70055;39.436;-77.514;2023-07-31T06:51:06;99332.22;;;16.72;65.65
80693;BME280;70055;39.436;-77.514;2023-07-31T06:53:34;99326.83;;;18.08;61.64
80693;BME280;70055;39.436;-77.514;2023-07-31T06:56:02;99331.67;;;17.26;64.10
80693;BME280;70055;39.436;-77.514;2023-07-31T06:58:31;99322.74;;;18.72;60.12
80693;BME280;70055;39.436;-77.514;2023-07-31T07:00:59;99320.40;;;18.01;62.17
80693;BME280;70055;39.436;-77.514;2023-07-31T07:03:27;99319.07;;;18.32;61.54
80693;BME280;70055;39.436;-77.514;2023-07-31T07:05:54;99315.82;;;17.54;63.66
80693;BME280;70055;39.436;-77.514;2023-07-31T07:08:22;99309.03;;;17.15;65.05
80693;BME280;70055;39.436;-77.514;2023-07-31T07:10:50;99304.99;;;16.70;66.54
80693;BME280;70055;39.436;-77.514;2023-07-31T07:13:18;99300.06;;;17.34;64.76
80693;BME280;70055;39.436;-77.514;2023-07-31T07:15:48;99298.75;;;17.85;63.39
80693;BME280;70055;39.436;-77.514;2023-07-31T07:18:16;99293.46;;;18.87;61.22
80693;BME280;70055;39.436;-77.514;2023-07-31T07:20:50;99293.09;;;17.95;61.85
80693;BME280;70055;39.436;-77.514;2023-07-31T07:23:18;99291.78;;;17.36;63.06
80693;BME280;70055;39.436;-77.514;2023-07-31T07:25:47;99288.03;;;16.45;65.49
80693;BME280;70055;39.436;-77.514;2023-07-31T07:28:16;99283.00;;;17.18;64.11
80693;BME280;70055;39.436;-77.514;2023-07-31T07:30:44;99282.20;;;16.18;66.20
80693;BME280;70055;39.436;-77.514;2023-07-31T07:33:12;99275.98;;;17.83;62.71
80693;BME280;70055;39.436;-77.514;2023-07-31T07:35:41;99274.93;;;18.73;60.19
80693;BME280;70055;39.436;-77.514;2023-07-31T07:38:09;99274.94;;;19.11;59.25
80693;BME280;70055;39.436;-77.514;2023-07-31T07:40:39;99275.22;;;18.68;59.34
80693;BME280;70055;39.436;-77.514;2023-07-31T07:43:08;99277.29;;;18.51;59.79
80693;BME280;70055;39.436;-77.514;2023-07-31T07:45:35;99285.15;;;16.74;63.31
80693;BME280;70055;39.436;-77.514;2023-07-31T07:48:04;99294.80;;;15.55;68.37
80693;BME280;70055;39.436;-77.514;2023-07-31T07:50:33;99290.44;;;15.69;68.76
80693;BME280;70055;39.436;-77.514;2023-07-31T07:53:02;99288.09;;;16.17;67.48
80693;BME280;70055;39.436;-77.514;2023-07-31T07:55:31;99290.76;;;15.52;69.13
80693;BME280;70055;39.436;-77.514;2023-07-31T07:58:00;99286.52;;;16.67;66.06
80693;BME280;70055;39.436;-77.514;2023-07-31T08:00:28;99280.16;;;18.06;63.28
80693;BME280;70055;39.436;-77.514;2023-07-31T08:02:56;99279.92;;;17.94;62.59
80693;BME280;70055;39.436;-77.514;2023-07-31T08:05:24;99280.95;;;18.26;61.92
80693;BME280;70055;39.436;-77.514;2023-07-31T08:07:52;99285.18;;;18.50;61.32
80693;BME280;70055;39.436;-77.514;2023-07-31T08:10:20;99281.75;;;18.52;60.56
80693;BME280;70055;39.436;-77.514;2023-07-31T08:12:49;99285.17;;;18.82;59.90
80693;BME280;70055;39.436;-77.514;2023-07-31T08:15:17;99288.54;;;19.03;59.37
80693;BME280;70055;39.436;-77.514;2023-07-31T08:17:44;99296.22;;;18.74;59.67
80693;BME280;70055;39.436;-77.514;2023-07-31T08:20:13;99298.38;;;19.15;58.57
80693;BME280;70055;39.436;-77.514;2023-07-31T08:22:41;99302.11;;;18.68;59.36
80693;BME280;70055;39.436;-77.514;2023-07-31T08:25:08;99301.76;;;18.45;60.24
80693;BME280;70055;39.436;-77.514;2023-07-31T08:27:36;99301.99;;;19.03;59.56
80693;BME280;70055;39.436;-77.514;2023-07-31T08:30:06;99297.68;;;18.43;59.95
80693;BME280;70055;39.436;-77.514;2023-07-31T08:32:34;99304.29;;;17.38;62.74
80693;BME280;70055;39.436;-77.514;2023-07-31T08:35:04;99308.82;;;18.49;61.46
80693;BME280;70055;39.436;-77.514;2023-07-31T08:37:32;99314.05;;;18.52;61.06
80693;BME280;70055;39.436;-77.514;2023-07-31T08:40:01;99326.63;;;18.79;59.82
80693;BME280;70055;39.436;-77.514;2023-07-31T08:42:30;99329.28;;;18.32;60.87
80693;BME280;70055;39.436;-77.514;2023-07-31T08:44:59;99331.54;;;17.77;61.87
80693;BME280;70055;39.436;-77.514;2023-07-31T08:47:29;99333.99;;;18.37;61.48
80693;BME280;70055;39.436;-77.514;2023-07-31T08:50:00;99336.22;;;18.08;61.39
80693;BME280;70055;39.436;-77.514;2023-07-31T08:52:29;99336.23;;;19.27;59.33
80693;BME280;70055;39.436;-77.514;2023-07-31T08:54:59;99324.41;;;18.09;60.98
80693;BME280;70055;39.436;-77.514;2023-07-31T08:57:28;99321.57;;;17.83;62.10
80693;BME280;70055;39.436;-77.514;2023-07-31T08:59:57;99322.11;;;17.93;62.54
80693;BME280;70055;39.436;-77.514;2023-07-31T09:02:28;99321.35;;;18.73;60.72
80693;BME280;70055;39.436;-77.514;2023-07-31T09:05:00;99316.32;;;18.89;59.79
80693;BME280;70055;39.436;-77.514;2023-07-31T09:07:28;99318.29;;;18.24;61.56
80693;BME280;70055;39.436;-77.514;2023-07-31T09:09:56;99323.41;;;18.77;60.17
80693;BME280;70055;39.436;-77.514;2023-07-31T09:12:25;99325.59;;;18.41;60.56
80693;BME280;70055;39.436;-77.514;2023-07-31T09:14:53;99325.33;;;18.44;60.70
80693;BME280;70055;39.436;-77.514;2023-07-31T09:17:29;99327.99;;;18.73;60.21
80693;BME280;70055;39.436;-77.514;2023-07-31T09:19:57;99333.30;;;18.75;59.80
80693;BME280;70055;39.436;-77.514;2023-07-31T09:22:32;99337.36;;;17.45;63.52
80693;BME280;70055;39.436;-77.514;2023-07-31T09:25:15;99346.63;;;18.61;60.69
80693;BME280;70055;39.436;-77.514;2023-07-31T09:27:49;99357.32;;;18.90;59.91
80693;BME280;70055;39.436;-77.514;2023-07-31T09:30:18;99361.81;;;19.11;59.71
80693;BME280;70055;39.436;-77.514;2023-07-31T09:32:49;99356.21;;;18.87;59.55
80693;BME280;70055;39.436;-77.514;2023-07-31T09:35:20;99351.51;;;18.32;61.01
80693;BME280;70055;39.436;-77.514;2023-07-31T09:37:51;99350.59;;;19.56;57.20
80693;BME280;70055;39.436;-77.514;2023-07-31T09:40:28;99349.53;;;19.25;58.87
80693;BME280;70055;39.436;-77.514;2023-07-31T09:42:58;99353.89;;;18.10;60.95
80693;BME280;70055;39.436;-77.514;2023-07-31T09:45:27;99348.44;;;18.28;60.88
80693;BME280;70055;39.436;-77.514;2023-07-31T09:47:55;99350.03;;;17.84;61.66
80693;BME280;70055;39.436;-77.514;2023-07-31T09:50:24;99358.51;;;16.92;63.58
80693;BME280;70055;39.436;-77.514;2023-07-31T09:52:52;99357.83;;;17.41;63.59
80693;BME280;70055;39.436;-77.514;2023-07-31T09:55:20;99352.64;;;18.89;60.99
80693;BME280;70055;39.436;-77.514;2023-07-31T09:57:49;99352.42;;;18.39;60.60
80693;BME280;70055;39.436;-77.514;2023-07-31T10:00:19;99354.96;;;18.77;59.84
80693;BME280;70055;39.436;-77.514;2023-07-31T10:02:47;99359.60;;;18.85;59.72
80693;BME280;70055;39.436;-77.514;2023-07-31T10:05:16;99363.16;;;18.83;59.55
80693;BME280;70055;39.436;-77.514;2023-07-31T10:07:54;99360.32;;;19.32;59.08
80693;BME280;70055;39.436;-77.514;2023-07-31T10:10:23;99362.56;;;19.04;59.52
80693;BME280;70055;39.436;-77.514;2023-07-31T10:12:52;99365.89;;;18.84;59.67
80693;BME280;70055;39.436;-77.514;2023-07-31T10:15:21;99364.23;;;18.53;60.40
80693;BME280;70055;39.436;-77.514;2023-07-31T10:17:50;99355.30;;;19.03;59.41
80693;BME280;70055;39.436;-77.514;2023-07-31T10:20:19;99358.63;;;17.92;61.45
80693;BME280;70055;39.436;-77.514;2023-07-31T10:22:48;99362.56;;;19.01;59.55
80693;BME280;70055;39.436;-77.514;2023-07-31T10:25:16;99368.95;;;19.20;59.16
80693;BME280;70055;39.436;-77.514;2023-07-31T10:27:47;99376.90;;;18.75;59.13
80693;BME280;70055;39.436;-77.514;2023-07-31T10:30:19;99378.67;;;19.17;59.00
80693;BME280;70055;39.436;-77.514;2023-07-31T10:32:48;99377.71;;;16.99;64.71
80693;BME280;70055;39.436;-77.514;2023-07-31T10:35:18;99375.50;;;16.55;65.42
80693;BME280;70055;39.436;-77.514;2023-07-31T10:37:46;99374.25;;;17.36;64.90
80693;BME280;70055;39.436;-77.514;2023-07-31T10:40:17;99372.48;;;18.87;60.76
80693;BME280;70055;39.436;-77.514;2023-07-31T10:42:48;99374.07;;;18.64;60.99
80693;BME280;70055;39.436;-77.514;2023-07-31T10:45:33;99374.60;;;18.44;61.54
80693;BME280;70055;39.436;-77.514;2023-07-31T10:48:03;99383.43;;;18.66;61.18
80693;BME280;70055;39.436;-77.514;2023-07-31T10:50:32;99391.71;;;18.98;60.62
80693;BME280;70055;39.436;-77.514;2023-07-31T10:53:00;99396.50;;;19.10;59.57
80693;BME280;70055;39.436;-77.514;2023-07-31T10:55:30;99405.81;;;19.24;58.93
80693;BME280;70055;39.436;-77.514;2023-07-31T10:58:07;99407.32;;;20.09;57.11
80693;BME280;70055;39.436;-77.514;2023-07-31T11:00:38;99417.35;;;19.85;58.07
80693;BME280;70055;39.436;-77.514;2023-07-31T11:03:07;99426.38;;;19.74;58.63
80693;BME280;70055;39.436;-77.514;2023-07-31T11:05:53;99434.30;;;19.62;58.67
80693;BME280;70055;39.436;-77.514;2023-07-31T11:08:28;99438.76;;;18.56;61.07
80693;BME280;70055;39.436;-77.514;2023-07-31T11:11:07;99441.63;;;19.93;58.01
80693;BME280;70055;39.436;-77.514;2023-07-31T11:13:42;99445.35;;;19.92;58.55
80693;BME280;70055;39.436;-77.514;2023-07-31T11:16:10;99444.31;;;20.71;56.29
80693;BME280;70055;39.436;-77.514;2023-07-31T11:18:40;99448.79;;;19.43;59.60
80693;BME280;70055;39.436;-77.514;2023-07-31T11:21:12;99460.06;;;19.35;59.90
80693;BME280;70055;39.436;-77.514;2023-07-31T11:23:45;99464.14;;;20.61;56.81
80693;BME280;70055;39.436;-77.514;2023-07-31T11:26:13;99467.98;;;20.34;57.81
80693;BME280;70055;39.436;-77.514;2023-07-31T11:28:42;99469.91;;;21.12;55.54
80693;BME280;70055;39.436;-77.514;2023-07-31T11:31:10;99470.12;;;21.21;58.12
80693;BME280;70055;39.436;-77.514;2023-07-31T11:33:40;99478.98;;;20.50;57.40
80693;BME280;70055;39.436;-77.514;2023-07-31T11:36:15;99477.16;;;20.85;58.43
80693;BME280;70055;39.436;-77.514;2023-07-31T11:38:43;99477.79;;;22.03;54.60
80693;BME280;70055;39.436;-77.514;2023-07-31T11:41:13;99478.97;;;20.92;58.62
80693;BME280;70055;39.436;-77.514;2023-07-31T11:43:41;99480.63;;;22.13;55.05
80693;BME280;70055;39.436;-77.514;2023-07-31T11:46:10;99485.52;;;22.23;55.41
80693;BME280;70055;39.436;-77.514;2023-07-31T11:48:39;99481.60;;;22.94;51.38
80693;BME280;70055;39.436;-77.514;2023-07-31T11:51:10;99483.59;;;22.04;53.59
80693;BME280;70055;39.436;-77.514;2023-07-31T11:53:44;99484.03;;;22.62;54.06
80693;BME280;70055;39.436;-77.514;2023-07-31T11:56:16;99481.72;;;22.88;55.82
80693;BME280;70055;39.436;-77.514;2023-07-31T11:58:48;99477.29;;;22.79;54.08
80693;BME280;70055;39.436;-77.514;2023-07-31T12:01:19;99475.84;;;23.28;51.26
80693;BME280;70055;39.436;-77.514;2023-07-31T12:03:49;99476.53;;;23.62;50.33
80693;BME280;70055;39.436;-77.514;2023-07-31T12:06:17;99483.08;;;23.64;50.73
80693;BME280;70055;39.436;-77.514;2023-07-31T12:08:45;99486.61;;;24.08;48.92
80693;BME280;70055;39.436;-77.514;2023-07-31T12:11:13;99492.58;;;24.35;47.03
80693;BME280;70055;39.436;-77.514;2023-07-31T12:13:41;99493.37;;;24.18;49.11
80693;BME280;70055;39.436;-77.514;2023-07-31T12:16:09;99494.75;;;24.53;48.87
80693;BME280;70055;39.436;-77.514;2023-07-31T12:18:40;99494.49;;;25.50;45.63
80693;BME280;70055;39.436;-77.514;2023-07-31T12:21:09;99499.79;;;25.00;46.19
80693;BME280;70055;39.436;-77.514;2023-07-31T12:23:38;99496.84;;;25.78;41.80
80693;BME280;70055;39.436;-77.514;2023-07-31T12:26:08;99492.33;;;25.60;42.36
80693;BME280;70055;39.436;-77.514;2023-07-31T12:28:39;99492.57;;;25.44;43.95
80693;BME280;70055;39.436;-77.514;2023-07-31T12:31:10;99499.88;;;25.82;43.42
80693;BME280;70055;39.436;-77.514;2023-07-31T12:33:41;99502.36;;;25.60;43.71
80693;BME280;70055;39.436;-77.514;2023-07-31T12:36:10;99499.47;;;26.76;42.40
80693;BME280;70055;39.436;-77.514;2023-07-31T12:38:39;99499.31;;;27.16;41.62
80693;BME280;70055;39.436;-77.514;2023-07-31T12:41:07;99516.68;;;20.82;50.72
80693;BME280;70055;39.436;-77.514;2023-07-31T12:43:38;99513.90;;;20.39;53.00
80693;BME280;70055;39.436;-77.514;2023-07-31T12:46:08;99510.17;;;20.59;53.42
80693;BME280;70055;39.436;-77.514;2023-07-31T12:48:37;99513.50;;;22.74;50.57
80693;BME280;70055;39.436;-77.514;2023-07-31T12:51:07;99514.44;;;24.57;46.81